createdAt,value
2018-02-27T00:00:40.292Z,10.60
2018-02-27T00:03:20.283Z,11.05
2018-02-27T00:05:53.385Z,10.38
2018-02-27T00:08:33.237Z,9.43
2018-02-27T00:11:13.166Z,11.02
2018-02-27T00:13:52.410Z,10.98
2018-02-27T00:16:31.928Z,10.07
2018-02-27T00:19:09.758Z,10.55
2018-02-27T00:21:44.772Z,11.65
2018-02-27T00:24:23.256Z,12.85
2018-02-27T00:27:00.120Z,12.23
2018-02-27T00:29:40.696Z,10.88
2018-02-27T00:32:20.389Z,9.45
2018-02-27T00:34:59.716Z,10.57
2018-02-27T00:37:33.035Z,11.23
2018-02-27T00:40:08.116Z,10.32
2018-02-27T00:42:48.504Z,11.23
2018-02-27T00:45:31.470Z,9.27
2018-02-27T00:48:10.955Z,8.93
2018-02-27T00:50:45.222Z,7.60
2018-02-27T00:53:24.765Z,9.52
2018-02-27T00:56:05.535Z,9.93
2018-02-27T00:58:45.083Z,9.82
2018-02-27T01:01:18.818Z,9.10
2018-02-27T01:03:52.417Z,9.02
2018-02-27T01:06:25.673Z,7.75
2018-02-27T01:09:04.003Z,10.55
2018-02-27T01:11:43.210Z,8.65
2018-02-27T01:14:21.344Z,8.45
2018-02-27T01:17:01.700Z,8.90
2018-02-27T01:19:41.902Z,7.47
2018-02-27T01:22:19.121Z,9.45
2018-02-27T01:24:59.899Z,8.63
2018-02-27T01:27:40.717Z,10.05
2018-02-27T01:30:21.405Z,9.32
2018-02-27T01:33:00.866Z,10.80
2018-02-27T01:35:38.692Z,9.35
2018-02-27T01:38:17.742Z,9.30
2018-02-27T01:40:58.106Z,11.00
2018-02-27T01:43:36.422Z,9.15
2018-02-27T01:46:13.600Z,8.15
2018-02-27T01:48:53.152Z,10.30
2018-02-27T01:51:26.686Z,9.40
2018-02-27T01:54:05.434Z,11.50
2018-02-27T01:56:42.973Z,11.55
2018-02-27T01:59:21.698Z,9.52
2018-02-27T02:02:01.117Z,9.07
2018-02-27T02:04:37.921Z,11.57
2018-02-27T02:07:11.262Z,10.43
2018-02-27T02:09:48.473Z,11.45
2018-02-27T02:12:30.490Z,11.20
2018-02-27T02:15:05.199Z,10.38
2018-02-27T02:17:37.977Z,11.40
2018-02-27T02:20:16.824Z,10.65
2018-02-27T02:22:58.078Z,10.10
2018-02-27T02:25:35.264Z,10.57
2018-02-27T02:28:13.662Z,8.27
2018-02-27T02:30:52.386Z,10.20
2018-02-27T02:33:30.210Z,9.95
2018-02-27T02:36:09.711Z,9.65
2018-02-27T02:38:49.479Z,12.20
2018-02-27T02:41:30.915Z,10.38
2018-02-27T02:44:07.858Z,10.40
2018-02-27T02:46:45.583Z,11.40
2018-02-27T02:49:24.038Z,11.50
2018-02-27T02:52:02.542Z,11.80
2018-02-27T02:54:42.810Z,10.93
2018-02-27T02:57:21.983Z,9.52
2018-02-27T03:00:00.171Z,10.13
2018-02-27T03:02:41.679Z,11.45
2018-02-27T03:05:23.996Z,10.95
2018-02-27T03:08:02.782Z,10.02
2018-02-27T03:10:41.282Z,10.63
2018-02-27T03:13:23.605Z,10.73
2018-02-27T03:16:01.550Z,11.18
2018-02-27T03:18:41.322Z,10.07
2018-02-27T03:21:19.775Z,9.38
2018-02-27T03:23:58.062Z,11.55
2018-02-27T03:26:36.803Z,9.10
2018-02-27T03:29:09.965Z,9.52
2018-02-27T03:31:50.518Z,9.10
2018-02-27T03:34:28.755Z,11.15
2018-02-27T03:37:05.768Z,10.32
2018-02-27T03:39:43.593Z,11.45
2018-02-27T03:42:21.787Z,9.57
2018-02-27T03:45:00.707Z,9.90
2018-02-27T03:47:39.617Z,10.32
2018-02-27T03:50:17.763Z,10.48
2018-02-27T03:52:54.648Z,9.50
2018-02-27T03:55:34.453Z,10.27
2018-02-27T03:58:12.636Z,9.32
2018-02-27T04:00:49.942Z,10.07
2018-02-27T04:03:27.855Z,11.45
2018-02-27T04:06:07.207Z,9.20
2018-02-27T04:08:45.585Z,10.98
2018-02-27T04:11:25.040Z,10.68
2018-02-27T04:14:02.380Z,11.75
2018-02-27T04:16:41.783Z,11.80
2018-02-27T04:19:22.743Z,10.85
2018-02-27T04:22:01.144Z,11.90
2018-02-27T04:24:41.039Z,11.45
2018-02-27T04:27:19.327Z,10.00
2018-02-27T04:29:52.603Z,10.05
2018-02-27T04:32:31.369Z,11.12
2018-02-27T04:35:08.651Z,10.73
2018-02-27T04:37:52.232Z,12.43
2018-02-27T04:40:31.982Z,11.05
2018-02-27T04:43:11.832Z,12.07
2018-02-27T04:45:52.247Z,9.82
2018-02-27T04:48:33.288Z,10.30
2018-02-27T04:51:11.497Z,11.30
2018-02-27T04:53:50.080Z,9.23
2018-02-27T04:56:28.969Z,10.07
2018-02-27T04:59:08.660Z,10.18
2018-02-27T05:01:51.005Z,11.02
2018-02-27T05:04:30.393Z,10.48
2018-02-27T05:07:07.696Z,11.07
2018-02-27T05:09:46.717Z,9.82
2018-02-27T05:12:25.977Z,10.90
2018-02-27T05:15:05.552Z,10.65
2018-02-27T05:17:38.725Z,11.38
2018-02-27T05:20:19.826Z,10.40
2018-02-27T05:22:58.857Z,11.32
2018-02-27T05:25:39.605Z,11.68
2018-02-27T05:28:12.615Z,11.07
2018-02-27T05:30:45.377Z,11.48
2018-02-27T05:33:25.259Z,11.05
2018-02-27T05:35:57.914Z,10.65
2018-02-27T05:38:36.458Z,10.60
2018-02-27T05:41:11.577Z,12.32
2018-02-27T05:43:44.083Z,10.05
2018-02-27T05:46:18.502Z,9.75
2018-02-27T05:48:56.682Z,9.13
2018-02-27T05:51:37.182Z,12.20
2018-02-27T05:54:09.842Z,10.23
2018-02-27T05:56:48.293Z,11.23
2018-02-27T05:59:25.757Z,11.25
2018-02-27T06:02:06.590Z,11.80
2018-02-27T06:04:46.322Z,11.07
2018-02-27T06:07:24.860Z,11.45
2018-02-27T06:10:06.662Z,10.65
2018-02-27T06:12:47.949Z,10.15
2018-02-27T06:15:23.630Z,10.57
2018-02-27T06:18:03.133Z,10.00
2018-02-27T06:20:37.160Z,9.65
2018-02-27T06:23:14.917Z,8.40
2018-02-27T06:25:52.029Z,10.07
2018-02-27T06:28:35.490Z,9.60
2018-02-27T06:31:10.060Z,9.45
2018-02-27T06:33:44.224Z,10.55
2018-02-27T06:36:21.918Z,9.70
2018-02-27T06:39:00.312Z,10.48
2018-02-27T06:41:38.156Z,9.32
2018-02-27T06:44:20.424Z,11.48
2018-02-27T06:46:59.539Z,10.02
2018-02-27T06:49:41.332Z,10.07
2018-02-27T06:52:20.410Z,9.30
2018-02-27T06:55:00.545Z,12.45
2018-02-27T06:57:38.149Z,9.50
2018-02-27T07:00:18.284Z,10.02
2018-02-27T07:02:57.877Z,8.98
2018-02-27T07:05:36.583Z,9.57
2018-02-27T07:08:15.394Z,9.68
2018-02-27T07:10:54.820Z,10.40
2018-02-27T07:13:32.835Z,9.80
2018-02-27T07:16:15.068Z,10.70
2018-02-27T07:18:55.061Z,9.95
2018-02-27T07:21:34.062Z,9.63
2018-02-27T07:24:12.976Z,10.48
2018-02-27T07:26:46.488Z,9.98
2018-02-27T07:29:25.246Z,8.98
2018-02-27T07:32:06.575Z,8.75
2018-02-27T07:34:45.446Z,9.63
2018-02-27T07:37:20.314Z,7.70
2018-02-27T07:39:57.853Z,9.88
2018-02-27T07:42:37.154Z,9.52
2018-02-27T07:45:15.518Z,9.43
2018-02-27T07:47:55.276Z,9.85
2018-02-27T07:50:35.378Z,10.63
2018-02-27T07:53:15.727Z,9.60
2018-02-27T07:55:53.555Z,10.52
2018-02-27T07:58:26.542Z,9.45
2018-02-27T08:01:05.231Z,8.80
2018-02-27T08:03:44.632Z,10.32
2018-02-27T08:06:26.562Z,10.57
2018-02-27T08:09:06.479Z,10.57
2018-02-27T08:11:44.144Z,9.52
2018-02-27T08:14:18.502Z,8.52
2018-02-27T08:16:58.641Z,9.02
2018-02-27T08:19:38.486Z,8.68
2018-02-27T08:22:17.637Z,8.40
2018-02-27T08:24:50.806Z,9.10
2018-02-27T08:27:34.097Z,8.27
2018-02-27T08:30:16.486Z,8.85
2018-02-27T08:32:51.905Z,9.68
2018-02-27T08:35:34.214Z,9.60
2018-02-27T08:38:12.102Z,8.65
2018-02-27T08:40:51.708Z,7.93
2018-02-27T08:43:33.321Z,7.40
2018-02-27T08:46:12.233Z,7.82
2018-02-27T08:48:46.629Z,8.57
2018-02-27T08:51:27.078Z,8.75
2018-02-27T08:54:06.597Z,8.15
2018-02-27T08:56:43.482Z,8.15
2018-02-27T08:59:23.402Z,8.10
2018-02-27T09:02:05.193Z,7.47
2018-02-27T09:04:38.537Z,7.80
2018-02-27T09:07:17.458Z,7.78
2018-02-27T09:09:56.543Z,7.78
2018-02-27T09:12:35.863Z,7.55
2018-02-27T09:15:08.828Z,9.30
2018-02-27T09:17:50.474Z,6.95
2018-02-27T09:20:29.426Z,8.15
2018-02-27T09:23:09.678Z,7.82
2018-02-27T09:25:42.631Z,6.90
2018-02-27T09:28:22.884Z,6.12
2018-02-27T09:30:57.649Z,7.53
2018-02-27T09:33:32.467Z,6.80
2018-02-27T09:36:11.686Z,5.18
2018-02-27T09:38:54.515Z,6.50
2018-02-27T09:41:34.884Z,6.93
2018-02-27T09:44:10.485Z,6.90
2018-02-27T09:46:50.317Z,7.55
2018-02-27T09:49:25.398Z,5.90
2018-02-27T09:52:02.693Z,6.78
2018-02-27T09:54:44.974Z,7.47
2018-02-27T09:57:23.514Z,6.25
2018-02-27T10:00:02.059Z,6.95
2018-02-27T10:02:41.190Z,6.53
2018-02-27T10:05:21.768Z,5.70
2018-02-27T10:07:56.921Z,6.53
2018-02-27T10:10:39.264Z,7.50
2018-02-27T10:13:19.490Z,6.05
2018-02-27T10:16:00.117Z,5.95
2018-02-27T10:18:33.178Z,5.90
2018-02-27T10:21:12.649Z,5.80
2018-02-27T10:23:52.608Z,5.53
2018-02-27T10:26:33.231Z,3.25
2018-02-27T10:29:13.000Z,6.12
2018-02-27T10:31:50.172Z,6.22
2018-02-27T10:34:29.125Z,6.15
2018-02-27T10:37:15.497Z,6.50
2018-02-27T10:39:56.841Z,6.93
2018-02-27T10:42:41.962Z,5.30
2018-02-27T10:45:23.243Z,5.03
2018-02-27T10:48:04.674Z,5.20
2018-02-27T10:50:37.082Z,4.90
2018-02-27T10:53:14.430Z,6.12
2018-02-27T10:55:55.355Z,5.72
2018-02-27T10:58:30.266Z,5.00
2018-02-27T11:01:26.395Z,6.20
2018-02-27T11:04:00.686Z,6.90
2018-02-27T11:06:42.678Z,6.10
2018-02-27T11:09:22.962Z,5.53
2018-02-27T11:12:04.085Z,5.00
2018-02-27T11:14:38.879Z,4.82
2018-02-27T11:17:17.819Z,5.28
2018-02-27T11:19:55.823Z,5.00
2018-02-27T11:22:33.319Z,5.97
2018-02-27T11:25:10.123Z,5.15
2018-02-27T11:27:46.607Z,5.75
2018-02-27T11:30:29.759Z,5.95
2018-02-27T11:33:11.883Z,5.85
2018-02-27T11:35:54.240Z,4.40
2018-02-27T11:38:30.941Z,5.60
2018-02-27T11:41:09.827Z,5.35
2018-02-27T11:43:46.152Z,6.60
2018-02-27T11:46:28.369Z,5.05
2018-02-27T11:49:13.224Z,5.65
2018-02-27T11:51:53.440Z,5.40
2018-02-27T11:54:34.507Z,4.57
2018-02-27T11:57:08.262Z,5.93
2018-02-27T11:59:44.076Z,5.32
2018-02-27T12:02:23.468Z,5.12
2018-02-27T12:05:02.190Z,4.80
2018-02-27T12:07:40.517Z,5.25
2018-02-27T12:10:18.447Z,6.00
2018-02-27T12:12:58.440Z,5.18
2018-02-27T12:15:36.351Z,5.43
2018-02-27T12:18:17.219Z,5.07
2018-02-27T12:20:51.826Z,5.37
2018-02-27T12:23:24.968Z,5.95
2018-02-27T12:26:02.456Z,6.53
2018-02-27T12:28:46.272Z,6.75
2018-02-27T12:31:22.355Z,6.75
2018-02-27T12:34:00.191Z,7.05
2018-02-27T12:36:40.389Z,5.70
2018-02-27T12:39:18.733Z,5.13
2018-02-27T12:41:59.641Z,5.72
2018-02-27T12:44:35.036Z,6.47
2018-02-27T12:47:14.160Z,6.65
2018-02-27T12:49:54.400Z,4.50
2018-02-27T12:52:34.494Z,7.22
2018-02-27T12:55:14.445Z,6.85
2018-02-27T12:57:52.815Z,5.90
2018-02-27T13:00:33.163Z,7.00
2018-02-27T13:03:11.745Z,5.97
2018-02-27T13:05:48.893Z,6.90
2018-02-27T13:08:26.050Z,6.28
2018-02-27T13:11:04.045Z,8.23
2018-02-27T13:13:43.483Z,6.78
2018-02-27T13:16:24.623Z,7.00
2018-02-27T13:19:04.835Z,7.22
2018-02-27T13:21:44.227Z,7.65
2018-02-27T13:24:21.378Z,6.47
2018-02-27T13:27:02.940Z,6.15
2018-02-27T13:29:44.950Z,6.50
2018-02-27T13:32:20.938Z,6.15
2018-02-27T13:35:01.029Z,6.55
2018-02-27T13:37:40.481Z,6.95
2018-02-27T13:40:19.313Z,5.50
2018-02-27T13:42:54.443Z,6.90
2018-02-27T13:45:29.757Z,7.35
2018-02-27T13:48:02.383Z,6.90
2018-02-27T13:50:38.596Z,7.70
2018-02-27T13:53:15.228Z,8.20
2018-02-27T13:55:49.272Z,7.90
2018-02-27T13:58:30.013Z,6.47
2018-02-27T14:01:09.813Z,7.75
2018-02-27T14:03:52.200Z,7.68
2018-02-27T14:06:30.661Z,6.93
2018-02-27T14:09:11.046Z,6.20
2018-02-27T14:11:45.895Z,6.72
2018-02-27T14:14:27.694Z,6.85
2018-02-27T14:17:07.141Z,7.60
2018-02-27T14:19:46.354Z,7.60
2018-02-27T14:22:25.025Z,7.87
2018-02-27T14:25:04.573Z,7.20
2018-02-27T14:27:45.490Z,4.53
2018-02-27T14:30:27.255Z,4.53
2018-02-27T14:33:05.986Z,7.68
2018-02-27T14:35:47.760Z,7.30
2018-02-27T14:38:21.856Z,7.15
2018-02-27T14:40:58.706Z,7.62
2018-02-27T14:43:36.036Z,6.75
2018-02-27T14:46:13.171Z,7.70
2018-02-27T14:48:54.612Z,7.55
2018-02-27T14:51:39.078Z,6.70
2018-02-27T14:54:18.957Z,4.00
2018-02-27T14:56:52.508Z,5.97
2018-02-27T14:59:31.411Z,6.87
2018-02-27T15:02:11.494Z,6.57
2018-02-27T15:04:51.859Z,7.75
2018-02-27T15:07:30.395Z,6.95
2018-02-27T15:10:04.495Z,7.35
2018-02-27T15:12:38.952Z,7.45
2018-02-27T15:15:18.006Z,6.78
2018-02-27T15:17:59.871Z,7.65
2018-02-27T15:20:32.795Z,8.10
2018-02-27T15:23:10.131Z,7.80
2018-02-27T15:25:47.983Z,9.05
2018-02-27T15:28:27.781Z,9.25
2018-02-27T15:31:07.346Z,8.77
2018-02-27T15:33:47.146Z,8.68
2018-02-27T15:36:27.030Z,8.48
2018-02-27T15:39:09.505Z,8.23
2018-02-27T15:41:50.141Z,7.47
2018-02-27T15:44:29.900Z,7.78
2018-02-27T15:47:08.753Z,8.48
2018-02-27T15:49:43.506Z,8.48
2018-02-27T15:52:18.286Z,8.20
2018-02-27T15:54:56.281Z,8.27
2018-02-27T15:57:35.735Z,8.32
2018-02-27T16:00:14.838Z,8.50
2018-02-27T16:02:47.991Z,6.82
2018-02-27T16:05:28.205Z,8.43
2018-02-27T16:08:06.414Z,8.13
2018-02-27T16:10:45.808Z,8.27
2018-02-27T16:13:25.918Z,8.65
2018-02-27T16:16:05.057Z,8.55
2018-02-27T16:18:43.479Z,8.80
2018-02-27T16:21:20.457Z,7.18
2018-02-27T16:24:01.232Z,9.80
2018-02-27T16:26:40.569Z,8.20
2018-02-27T16:29:18.902Z,8.77
2018-02-27T16:31:59.596Z,7.97
2018-02-27T16:34:41.023Z,8.00
2018-02-27T16:37:21.778Z,8.02
2018-02-27T16:39:57.807Z,7.87
2018-02-27T16:42:31.489Z,7.80
2018-02-27T16:45:12.798Z,8.15
2018-02-27T16:47:57.195Z,8.75
2018-02-27T16:50:37.468Z,9.15
2018-02-27T16:53:16.634Z,10.55
2018-02-27T16:55:57.322Z,9.40
2018-02-27T16:58:31.002Z,11.05
2018-02-27T17:01:08.178Z,9.48
2018-02-27T17:03:44.896Z,8.75
2018-02-27T17:06:22.061Z,9.07
2018-02-27T17:08:55.456Z,10.25
2018-02-27T17:11:34.758Z,8.98
2018-02-27T17:14:16.095Z,10.35
2018-02-27T17:16:54.525Z,9.45
2018-02-27T17:19:28.568Z,8.93
2018-02-27T17:22:06.897Z,9.07
2018-02-27T17:24:48.008Z,10.23
2018-02-27T17:27:25.126Z,9.25
2018-02-27T17:30:00.448Z,8.43
2018-02-27T17:32:39.708Z,9.23
2018-02-27T17:35:18.966Z,4.90
2018-02-27T17:37:53.210Z,11.05
2018-02-27T17:40:34.283Z,10.73
2018-02-27T17:43:08.223Z,9.43
2018-02-27T17:45:42.879Z,9.75
2018-02-27T17:48:15.195Z,10.27
2018-02-27T17:50:55.011Z,9.07
2018-02-27T17:53:33.888Z,9.55
2018-02-27T17:56:14.454Z,9.18
2018-02-27T17:58:52.845Z,9.38
2018-02-27T18:01:31.381Z,10.65
2018-02-27T18:04:10.208Z,8.38
2018-02-27T18:06:49.707Z,8.18
2018-02-27T18:09:28.195Z,8.90
2018-02-27T18:12:08.301Z,9.60
2018-02-27T18:14:47.960Z,8.27
2018-02-27T18:17:27.073Z,9.13
2018-02-27T18:20:10.524Z,9.90
2018-02-27T18:22:46.412Z,8.30
2018-02-27T18:25:24.865Z,8.35
2018-02-27T18:28:04.565Z,9.20
2018-02-27T18:30:44.311Z,8.05
2018-02-27T18:33:26.098Z,9.70
2018-02-27T18:36:06.502Z,8.45
2018-02-27T18:38:47.236Z,9.20
2018-02-27T18:41:27.263Z,9.00
2018-02-27T18:44:06.829Z,10.48
2018-02-27T18:46:46.428Z,8.95
2018-02-27T18:49:22.348Z,8.27
2018-02-27T18:52:00.595Z,8.10
2018-02-27T18:54:34.926Z,8.70
2018-02-27T18:57:14.929Z,9.02
2018-02-27T18:59:53.798Z,8.35
2018-02-27T19:02:33.440Z,7.82
2018-02-27T19:05:07.444Z,8.45
2018-02-27T19:07:45.320Z,8.38
2018-02-27T19:10:24.324Z,8.85
2018-02-27T19:13:03.953Z,9.80
2018-02-27T19:15:44.963Z,9.18
2018-02-27T19:18:25.095Z,10.27
2018-02-27T19:21:06.233Z,7.32
2018-02-27T19:23:45.324Z,8.40
2018-02-27T19:26:23.918Z,9.27
2018-02-27T19:29:02.034Z,7.32
2018-02-27T19:31:39.728Z,8.70
2018-02-27T19:34:17.801Z,8.35
2018-02-27T19:36:57.375Z,8.65
2018-02-27T19:39:31.088Z,8.05
2018-02-27T19:42:11.148Z,7.78
2018-02-27T19:44:49.712Z,7.68
2018-02-27T19:47:24.223Z,8.27
2018-02-27T19:50:03.136Z,8.23
2018-02-27T19:52:42.476Z,9.27
2018-02-27T19:55:22.631Z,8.18
2018-02-27T19:57:57.286Z,9.30
2018-02-27T20:00:36.906Z,8.10
2018-02-27T20:03:18.284Z,9.50
2018-02-27T20:05:57.267Z,8.63
2018-02-27T20:08:30.673Z,10.15
2018-02-27T20:11:03.795Z,9.15
2018-02-27T20:13:43.691Z,11.43
2018-02-27T20:16:24.799Z,9.30
2018-02-27T20:18:57.952Z,8.48
2018-02-27T20:21:34.980Z,9.07
2018-02-27T20:24:17.556Z,9.00
2018-02-27T20:26:59.659Z,9.50
2018-02-27T20:29:40.311Z,9.88
2018-02-27T20:32:13.109Z,8.90
2018-02-27T20:34:52.651Z,5.80
2018-02-27T20:37:32.599Z,9.40
2018-02-27T20:40:07.616Z,8.98
2018-02-27T20:42:46.480Z,9.90
2018-02-27T20:45:24.548Z,10.93
2018-02-27T20:48:03.380Z,8.45
2018-02-27T20:50:41.835Z,8.95
2018-02-27T20:53:22.087Z,9.30
2018-02-27T20:56:01.357Z,8.57
2018-02-27T20:58:43.104Z,8.57
2018-02-27T21:01:16.461Z,9.88
2018-02-27T21:03:56.265Z,10.15
2018-02-27T21:06:30.671Z,9.38
2018-02-27T21:09:03.190Z,9.18
2018-02-27T21:11:44.345Z,9.23
2018-02-27T21:14:23.092Z,10.52
2018-02-27T21:17:03.430Z,10.70
2018-02-27T21:19:38.694Z,9.02
2018-02-27T21:22:20.388Z,10.23
2018-02-27T21:24:59.212Z,9.50
2018-02-27T21:27:33.062Z,9.48
2018-02-27T21:30:05.763Z,9.25
2018-02-27T21:32:44.948Z,8.85
2018-02-27T21:35:25.238Z,9.77
2018-02-27T21:38:03.238Z,9.75
2018-02-27T21:40:43.953Z,9.18
2018-02-27T21:43:25.134Z,9.00
2018-02-27T21:45:59.008Z,9.48
2018-02-27T21:48:38.611Z,9.63
2018-02-27T21:51:18.025Z,9.20
2018-02-27T21:53:56.532Z,9.75
2018-02-27T21:56:31.225Z,9.63
2018-02-27T21:59:10.714Z,9.93
2018-02-27T22:01:49.802Z,9.60
2018-02-27T22:04:25.812Z,9.05
2018-02-27T22:07:03.802Z,10.57
2018-02-27T22:09:43.540Z,10.25
2018-02-27T22:12:23.899Z,8.57
2018-02-27T22:15:06.072Z,11.20
2018-02-27T22:17:43.572Z,10.85
2018-02-27T22:20:19.748Z,11.30
2018-02-27T22:22:59.976Z,10.43
2018-02-27T22:25:40.515Z,10.05
2018-02-27T22:28:19.184Z,11.68
2018-02-27T22:31:01.826Z,12.18
2018-02-27T22:33:34.632Z,10.48
2018-02-27T22:36:11.655Z,12.82
2018-02-27T22:38:50.964Z,11.35
2018-02-27T22:41:29.381Z,12.50
2018-02-27T22:44:08.676Z,12.85
2018-02-27T22:46:42.407Z,12.18
2018-02-27T22:49:20.479Z,14.10
2018-02-27T22:51:58.341Z,12.43
2018-02-27T22:54:31.937Z,12.52
2018-02-27T22:57:12.628Z,12.10
2018-02-27T22:59:52.883Z,12.77
2018-02-27T23:02:27.062Z,12.98
2018-02-27T23:05:06.798Z,13.15
2018-02-27T23:07:41.067Z,13.73
2018-02-27T23:10:16.086Z,13.20
2018-02-27T23:12:50.106Z,12.82
2018-02-27T23:15:29.406Z,12.45
2018-02-27T23:18:09.246Z,13.20
2018-02-27T23:20:48.617Z,11.93
2018-02-27T23:23:29.373Z,14.15
2018-02-27T23:26:14.158Z,13.77
2018-02-27T23:28:55.305Z,14.07
2018-02-27T23:31:29.127Z,12.37
2018-02-27T23:34:19.651Z,13.00
2018-02-27T23:36:58.761Z,14.38
2018-02-27T23:39:37.628Z,14.50
2018-02-27T23:42:17.889Z,15.40
2018-02-27T23:44:55.323Z,13.90
2018-02-27T23:47:35.055Z,12.88
2018-02-27T23:50:17.768Z,13.70
2018-02-27T23:52:56.632Z,13.80
2018-02-27T23:55:38.374Z,13.98
2018-02-27T23:58:17.357Z,13.25
